Time;durP1;ratioP1;P1;durP2;ratioP2;P2;SDS_P1;SDS_P2;PMS_P1;PMS_P2;Temp;Humidity;BMP_temperature;BMP_pressure;BME280_temperature;BME280_humidity;BME280_pressure;Samples;Min_cycle;Max_cycle;Signal;HPM_P1;HPM_P2
2022/04/06 00:00:37;;;;;;;10.13;4.60;;;;;;;12.00;63.49;98474.69;5160500;28;20050;-73
2022/04/06 00:03:27;;;;;;;5.57;4.30;;;;;;;12.04;63.63;98468.06;5167162;28;20053;-72
2022/04/06 00:06:17;;;;;;;6.18;4.75;;;;;;;11.96;63.19;98468.06;5164275;28;20061;-73
2022/04/06 00:09:28;;;;;;;6.00;4.50;;;;;;;11.93;63.87;98453.28;5165148;28;20428;-71
2022/04/06 00:12:18;;;;;;;6.20;4.68;;;;;;;12.01;64.49;98454.28;5163767;28;20061;-71
2022/04/06 00:15:10;;;;;;;9.00;4.43;;;;;;;12.19;62.76;98454.94;5141562;28;20086;-71
2022/04/06 00:18:01;;;;;;;5.65;4.57;;;;;;;11.98;64.00;98455.44;5163733;28;20124;-71
2022/04/06 00:20:50;;;;;;;5.85;4.43;;;;;;;12.07;63.62;98456.28;5159845;28;20197;-70
2022/04/06 00:23:41;;;;;;;6.85;4.60;;;;;;;12.01;64.09;98452.44;5150611;28;20772;-71
2022/04/06 00:26:31;;;;;;;7.65;4.38;;;;;;;12.08;63.37;98457.91;5160030;28;20078;-71
2022/04/06 00:29:21;;;;;;;8.48;4.97;;;;;;;12.15;63.22;98450.94;5155539;28;20051;-71
2022/04/06 00:32:11;;;;;;;7.15;4.47;;;;;;;12.04;64.02;98457.44;5170967;28;20065;-71
2022/04/06 00:38:10;;;;;;;6.93;4.88;;;;;;;11.92;64.14;98440.16;5166153;28;20060;-71
2022/04/06 00:41:00;;;;;;;6.40;4.50;;;;;;;12.03;64.07;98445.16;5164573;28;20061;-71
2022/04/06 00:44:11;;;;;;;4.60;3.63;;;;;;;11.98;64.08;98440.31;5165397;28;20658;-71
2022/04/06 00:47:03;;;;;;;6.57;4.45;;;;;;;12.01;64.57;98439.16;5160171;28;20185;-71
2022/04/06 00:49:53;;;;;;;6.75;4.38;;;;;;;11.95;64.31;98426.53;5171470;28;20100;-71
2022/04/06 00:52:44;;;;;;;7.78;4.35;;;;;;;12.01;64.40;98436.50;5164932;28;20181;-71
2022/04/06 00:55:37;;;;;;;7.55;4.95;;;;;;;11.96;64.54;98434.34;5164822;28;20416;-71
2022/04/06 00:58:27;;;;;;;5.15;4.30;;;;;;;11.87;64.82;98418.56;5164695;28;20512;-71
2022/04/06 01:01:17;;;;;;;6.50;4.75;;;;;;;11.82;64.91;98423.50;5161152;28;20093;-72
2022/04/06 01:04:08;;;;;;;4.72;4.05;;;;;;;11.84;65.14;98425.03;5165963;28;20509;-72
2022/04/06 01:06:58;;;;;;;5.40;4.68;;;;;;;11.73;65.28;98420.88;5174169;28;20057;-72
2022/04/06 01:09:48;;;;;;;6.60;4.55;;;;;;;11.83;65.29;98423.38;5167108;28;20077;-73
2022/04/06 01:12:39;;;;;;;5.82;4.30;;;;;;;11.72;65.41;98407.72;5164629;28;20074;-72
2022/04/06 01:15:29;;;;;;;4.80;4.22;;;;;;;11.75;65.67;98402.94;5164602;28;20748;-71
2022/04/06 01:18:19;;;;;;;4.95;4.40;;;;;;;11.90;65.42;98415.59;5168508;28;20050;-73
2022/04/06 01:21:11;;;;;;;7.30;4.00;;;;;;;11.88;64.73;98415.75;5142948;28;20058;-71
2022/04/06 01:24:01;;;;;;;5.47;4.40;;;;;;;11.63;65.82;98396.28;5136213;28;20137;-74
2022/04/06 01:26:52;;;;;;;6.88;4.85;;;;;;;11.77;65.08;98406.25;5162652;28;20425;-73
2022/04/06 01:29:43;;;;;;;9.38;4.90;;;;;;;11.72;65.27;98413.03;5169552;28;20060;-72
2022/04/06 01:32:35;;;;;;;6.07;4.95;;;;;;;11.75;65.25;98402.09;5166473;28;20057;-72
2022/04/06 01:35:25;;;;;;;9.10;4.88;;;;;;;11.64;65.86;98411.22;5168313;28;20085;-71
2022/04/06 01:38:15;;;;;;;7.25;5.32;;;;;;;11.58;66.49;98414.53;5163887;28;20046;-73
2022/04/06 01:41:06;;;;;;;8.93;5.20;;;;;;;11.56;66.15;98405.09;5163942;28;20169;-73
2022/04/06 01:43:56;;;;;;;9.35;4.90;;;;;;;11.60;66.42;98409.91;5164646;28;20053;-72
2022/04/06 01:46:46;;;;;;;9.45;5.93;;;;;;;11.81;64.72;98406.75;5168053;28;20056;-72
2022/04/06 01:52:45;;;;;;;8.18;6.03;;;;;;;11.63;65.39;98403.44;5170124;28;20056;-73
2022/04/06 01:55:35;;;;;;;8.85;6.53;;;;;;;11.64;65.69;98407.75;5163494;28;20188;-73
2022/04/06 01:58:25;;;;;;;13.35;6.85;;;;;;;11.49;66.31;98408.41;5172891;28;20057;-73
2022/04/06 02:01:15;;;;;;;8.77;5.88;;;;;;;11.41;66.34;98391.63;5167493;28;20116;-73
2022/04/06 02:04:14;;;;;;;8.65;5.95;;;;;;;11.70;65.87;98402.59;5151904;28;20046;-73
2022/04/06 02:07:05;;;;;;;10.13;5.75;;;;;;;11.90;64.46;98399.66;5163668;28;20058;-73
2022/04/06 02:09:58;;;;;;;6.75;5.75;;;;;;;11.88;64.46;98386.50;5163677;28;20053;-72
2022/04/06 02:12:50;;;;;;;7.40;5.90;;;;;;;11.52;65.98;98368.25;5159442;28;20157;-72
2022/04/06 02:15:41;;;;;;;8.88;6.18;;;;;;;11.64;65.64;98389.16;5151986;28;20073;-71
2022/04/06 02:18:31;;;;;;;7.32;5.20;;;;;;;11.65;65.53;98381.00;5170320;28;20179;-73
2022/04/06 02:21:22;;;;;;;9.00;5.63;;;;;;;11.73;65.65;98377.53;5168238;28;20136;-72
2022/04/06 02:24:12;;;;;;;8.05;5.28;;;;;;;11.69;65.54;98384.19;5163617;28;20062;-72
2022/04/06 02:27:05;;;;;;;7.35;5.57;;;;;;;11.70;65.62;98375.22;5163807;28;20552;-73
2022/04/06 02:29:55;;;;;;;10.53;5.70;;;;;;;11.68;65.98;98382.50;5162319;28;20053;-72
2022/04/06 02:32:46;;;;;;;7.95;5.80;;;;;;;11.87;65.27;98384.03;5163832;28;20081;-72
2022/04/06 02:35:36;;;;;;;8.73;6.32;;;;;;;11.73;65.51;98378.38;5151676;28;20039;-73
2022/04/06 02:38:26;;;;;;;7.70;5.60;;;;;;;11.70;65.64;98369.91;5168382;28;20125;-72
2022/04/06 02:41:17;;;;;;;10.48;6.47;;;;;;;11.88;64.44;98365.25;5147046;28;20629;-72
2022/04/06 02:44:07;;;;;;;8.50;6.45;;;;;;;11.58;65.53;98366.75;5165900;28;20060;-73
2022/04/06 02:46:57;;;;;;;9.25;5.90;;;;;;;11.74;65.16;98369.41;5162957;28;20064;-72
2022/04/06 02:49:48;;;;;;;11.27;6.68;;;;;;;11.76;64.96;98348.00;5162591;28;20061;-72
2022/04/06 02:52:38;;;;;;;15.50;8.77;;;;;;;12.29;63.48;98365.22;5164746;28;20066;-72
2022/04/06 02:55:28;;;;;;;11.20;6.97;;;;;;;12.09;63.31;98343.50;5163922;28;20050;-72
2022/04/06 02:58:17;;;;;;;10.20;7.00;;;;;;;12.21;63.90;98360.72;5164951;28;20085;-72
2022/04/06 03:01:08;;;;;;;9.30;6.88;;;;;;;11.78;64.98;98348.66;5160977;28;20065;-71
2022/04/06 03:04:04;;;;;;;12.23;7.30;;;;;;;11.67;65.51;98349.81;5168915;28;20061;-72
2022/04/06 03:06:54;;;;;;;13.98;7.22;;;;;;;12.07;64.10;98348.16;5151334;28;20523;-72
2022/04/06 03:09:44;;;;;;;10.98;7.15;;;;;;;11.75;65.29;98348.97;5147719;28;20074;-72
2022/04/06 03:12:34;;;;;;;10.07;6.78;;;;;;;11.86;64.39;98335.41;5162824;28;20524;-72
2022/04/06 03:15:25;;;;;;;10.93;6.82;;;;;;;12.26;63.31;98332.84;5165912;28;20073;-72
2022/04/06 03:18:15;;;;;;;10.50;6.90;;;;;;;11.46;66.27;98301.72;5167480;28;20054;-72
2022/04/06 03:21:05;;;;;;;9.50;6.68;;;;;;;11.73;65.28;98333.22;5166241;28;20108;-72
2022/04/06 03:23:55;;;;;;;12.20;6.70;;;;;;;11.58;65.45;98316.28;5158718;28;20124;-73
2022/04/06 03:26:45;;;;;;;15.05;7.15;;;;;;;12.06;64.02;98329.72;5161752;28;20535;-73
2022/04/06 03:29:34;;;;;;;10.02;6.68;;;;;;;12.04;64.87;98323.75;5162505;28;20069;-73
2022/04/06 03:32:24;;;;;;;9.07;6.57;;;;;;;11.70;65.57;98325.59;5150922;28;20054;-73
2022/04/06 03:35:14;;;;;;;10.55;7.00;;;;;;;11.67;65.29;98319.78;5155175;28;20045;-73
2022/04/06 03:38:05;;;;;;;10.07;6.32;;;;;;;11.77;65.14;98331.06;5157650;28;20200;-73
2022/04/06 03:40:55;;;;;;;12.20;6.60;;;;;;;11.99;63.96;98330.41;5146754;28;20050;-74
2022/04/06 03:43:46;;;;;;;11.07;6.85;;;;;;;12.15;63.73;98316.25;5166062;28;20042;-74
2022/04/06 03:46:36;;;;;;;9.15;6.70;;;;;;;11.85;65.03;98316.97;5151318;28;20073;-74
2022/04/06 03:49:30;;;;;;;12.00;6.60;;;;;;;11.71;64.65;98302.50;5156900;28;20051;-73
2022/04/06 03:52:20;;;;;;;7.85;6.35;;;;;;;12.00;64.86;98317.94;5165157;28;20060;-74
2022/04/06 03:55:10;;;;;;;9.30;6.15;;;;;;;11.95;64.24;98321.13;5159110;28;20526;-73
2022/04/06 03:58:00;;;;;;;8.45;6.40;;;;;;;11.75;64.96;98315.31;5160576;28;20472;-73
2022/04/06 04:00:53;;;;;;;8.88;5.88;;;;;;;11.70;65.10;98316.78;5160380;28;20112;-73
2022/04/06 04:03:43;;;;;;;10.20;6.60;;;;;;;11.92;64.23;98299.34;5167291;28;20263;-74
2022/04/06 04:06:33;;;;;;;8.73;6.25;;;;;;;11.84;64.56;98302.00;5169592;28;20123;-73
2022/04/06 04:09:23;;;;;;;9.73;6.18;;;;;;;11.73;63.58;98295.22;5163926;28;20058;-73
2022/04/06 04:12:13;;;;;;;15.02;6.70;;;;;;;11.88;64.29;98311.31;5145756;28;20054;-73
2022/04/06 04:15:04;;;;;;;9.85;6.03;;;;;;;11.48;65.08;98308.50;5145534;28;20429;-75
2022/04/06 04:17:55;;;;;;;8.15;6.03;;;;;;;11.49;65.89;98307.53;5165416;28;20053;-76
2022/04/06 04:20:45;;;;;;;6.63;5.63;;;;;;;11.87;64.62;98310.50;5147143;28;20505;-72
2022/04/06 04:23:35;;;;;;;10.88;6.32;;;;;;;11.76;64.90;98308.16;5161802;28;20056;-71
2022/04/06 04:26:26;;;;;;;9.20;5.75;;;;;;;11.76;65.38;98309.00;5162703;28;20057;-70
2022/04/06 04:29:17;;;;;;;10.88;6.28;;;;;;;11.69;65.25;98310.66;5161735;28;20077;-72
2022/04/06 04:32:10;;;;;;;8.65;5.28;;;;;;;11.65;64.94;98311.97;5161678;28;20053;-72
2022/04/06 04:35:03;;;;;;;10.10;6.10;;;;;;;11.75;64.99;98311.78;5148480;28;20104;-72
2022/04/06 04:37:55;;;;;;;8.60;6.25;;;;;;;11.87;64.60;98299.03;5158064;28;20054;-73
2022/04/06 04:40:45;;;;;;;8.88;6.10;;;;;;;11.86;64.78;98300.03;5164387;28;20156;-71
2022/04/06 04:43:36;;;;;;;8.98;6.00;;;;;;;11.84;65.16;98300.19;5167091;28;20049;-72
2022/04/06 04:46:26;;;;;;;11.32;6.07;;;;;;;11.67;65.24;98299.38;5166367;28;20447;-70
2022/04/06 04:49:16;;;;;;;14.48;5.93;;;;;;;11.86;64.85;98295.56;5161816;28;20105;-71
2022/04/06 04:52:06;;;;;;;10.32;6.18;;;;;;;11.82;65.18;98296.88;5158618;28;20057;-69
2022/04/06 04:54:56;;;;;;;12.55;5.97;;;;;;;12.02;64.15;98289.38;5161819;28;20137;-70
2022/04/06 04:57:46;;;;;;;7.57;5.68;;;;;;;11.94;65.16;98292.03;5161223;28;20416;-71
2022/04/06 05:00:37;;;;;;;9.80;5.50;;;;;;;11.89;64.70;98289.09;5160833;28;20432;-70
2022/04/06 05:03:28;;;;;;;8.80;5.38;;;;;;;11.97;64.92;98292.53;5158557;28;20046;-71
2022/04/06 05:06:19;;;;;;;10.30;5.43;;;;;;;12.19;63.49;98279.53;5150524;28;20497;-70
2022/04/06 05:09:09;;;;;;;8.13;4.70;;;;;;;12.11;64.06;98295.50;5162036;28;20100;-69
2022/04/06 05:11:59;;;;;;;8.85;4.93;;;;;;;11.93;65.23;98287.75;5163694;28;20053;-69
2022/04/06 05:14:49;;;;;;;7.78;4.93;;;;;;;11.84;64.96;98302.00;5164602;28;20053;-69
2022/04/06 05:17:39;;;;;;;9.23;5.50;;;;;;;11.85;63.84;98269.97;5184051;28;20749;-72
2022/04/06 05:20:32;;;;;;;10.95;5.63;;;;;;;11.75;64.80;98302.03;5205192;23;20064;-72
2022/04/06 05:23:23;;;;;;;7.53;5.47;;;;;;;11.64;65.80;98294.38;5164491;28;20054;-72
2022/04/06 05:26:14;;;;;;;9.80;6.25;;;;;;;11.75;65.42;98283.44;5155447;28;20496;-71
2022/04/06 05:29:03;;;;;;;8.32;5.28;;;;;;;11.89;65.36;98289.91;5148846;28;20432;-72
2022/04/06 05:31:53;;;;;;;9.90;5.25;;;;;;;12.08;64.92;98285.19;5129107;28;20421;-72
2022/04/06 05:34:43;;;;;;;8.05;5.82;;;;;;;11.98;64.80;98283.56;5156277;28;20500;-71
2022/04/06 05:37:34;;;;;;;9.18;5.53;;;;;;;11.93;64.35;98271.81;5147130;28;20042;-72
2022/04/06 05:40:25;;;;;;;8.35;5.20;;;;;;;11.99;64.60;98271.13;5153747;28;20499;-72
2022/04/06 05:43:15;;;;;;;8.07;5.35;;;;;;;12.08;65.21;98286.03;5149286;28;20140;-71
2022/04/06 05:46:05;;;;;;;8.20;5.75;;;;;;;12.03;65.54;98293.69;5133270;28;20065;-72
2022/04/06 05:48:55;;;;;;;10.48;5.80;;;;;;;12.11;65.26;98290.19;5148844;28;20053;-72
2022/04/06 05:51:45;;;;;;;8.70;5.72;;;;;;;12.29;64.45;98290.78;5128711;28;20140;-72
2022/04/06 05:54:36;;;;;;;11.55;5.35;;;;;;;12.20;64.66;98284.66;5161526;28;20555;-71
2022/04/06 05:57:26;;;;;;;7.63;5.07;;;;;;;12.24;64.96;98285.16;5163146;28;20053;-72
2022/04/06 06:00:17;;;;;;;11.20;6.00;;;;;;;12.33;64.24;98291.28;5147602;28;20050;-72
2022/04/06 06:03:07;;;;;;;7.50;5.10;;;;;;;12.50;63.35;98300.84;5163348;28;20050;-72
2022/04/06 06:05:57;;;;;;;10.15;5.10;;;;;;;12.30;64.24;98294.28;5162310;28;20038;-72
2022/04/06 06:08:48;;;;;;;11.38;5.47;;;;;;;12.52;63.87;98290.03;5162924;28;20050;-72
2022/04/06 06:11:39;;;;;;;6.07;4.78;;;;;;;12.45;63.83;98279.28;5146372;28;20080;-72
2022/04/06 06:14:30;;;;;;;9.00;5.45;;;;;;;12.57;62.71;98290.34;5132415;28;20140;-72
2022/04/06 06:17:20;;;;;;;7.90;4.78;;;;;;;12.42;63.28;98285.75;5162062;28;20140;-71
2022/04/06 06:20:10;;;;;;;6.88;5.13;;;;;;;12.54;63.33;98288.00;5162836;28;20058;-72
2022/04/06 06:23:00;;;;;;;12.68;5.07;;;;;;;12.61;62.35;98273.00;5162190;28;20065;-72
2022/04/06 06:25:50;;;;;;;8.55;4.20;;;;;;;12.84;62.44;98287.19;5162206;28;20526;-72
2022/04/06 06:28:41;;;;;;;8.88;4.40;;;;;;;12.88;62.11;98288.50;5161978;28;20084;-72
2022/04/06 06:31:31;;;;;;;6.00;3.58;;;;;;;12.86;61.99;98297.66;5146182;28;20496;-72
2022/04/06 06:34:21;;;;;;;6.68;3.92;;;;;;;12.79;62.88;98294.06;5162531;28;20069;-72
2022/04/06 06:37:12;;;;;;;5.20;3.30;;;;;;;13.10;60.87;98292.16;5161609;28;20133;-72
2022/04/06 06:40:04;;;;;;;6.68;3.78;;;;;;;12.98;61.82;98293.59;5162257;28;20098;-71
2022/04/06 06:42:55;;;;;;;8.73;3.60;;;;;;;12.74;62.09;98275.94;5147018;28;20105;-72
2022/04/06 06:45:46;;;;;;;4.78;3.22;;;;;;;12.63;62.57;98289.63;5160324;28;20054;-72
2022/04/06 06:48:37;;;;;;;4.43;3.10;;;;;;;13.04;62.57;98289.38;5147435;28;20061;-72
2022/04/06 06:51:29;;;;;;;6.03;2.90;;;;;;;13.10;61.24;98260.22;5162052;28;20080;-72
2022/04/06 06:54:19;;;;;;;5.60;3.10;;;;;;;13.10;61.01;98276.19;5161755;28;20117;-72
2022/04/06 06:57:11;;;;;;;6.10;3.17;;;;;;;13.17;60.52;98287.78;5161695;28;20061;-69
2022/04/06 07:00:04;;;;;;;3.53;2.50;;;;;;;12.99;60.44;98281.94;5162107;28;20065;-69
2022/04/06 07:02:55;;;;;;;4.30;2.90;;;;;;;13.19;60.20;98281.47;5137999;28;20180;-70
2022/04/06 07:05:45;;;;;;;4.30;3.05;;;;;;;13.14;60.53;98271.34;5146491;28;20049;-69
2022/04/06 07:08:35;;;;;;;4.03;3.00;;;;;;;13.06;60.42;98280.22;5161584;28;20863;-70
2022/04/06 07:11:25;;;;;;;5.20;2.80;;;;;;;13.13;59.48;98280.34;5133937;28;20058;-70
2022/04/06 07:14:15;;;;;;;3.22;2.60;;;;;;;13.24;60.27;98281.75;5162542;28;20053;-70
2022/04/06 07:17:06;;;;;;;6.68;2.85;;;;;;;13.02;61.25;98270.94;5149280;28;20054;-70
2022/04/06 07:19:56;;;;;;;4.95;3.05;;;;;;;13.24;60.03;98282.63;5164873;28;20057;-69
2022/04/06 07:22:46;;;;;;;5.65;3.00;;;;;;;13.26;59.77;98258.50;5139511;28;20050;-70
2022/04/06 07:25:36;;;;;;;3.58;2.65;;;;;;;13.25;60.44;98263.00;5163634;28;20069;-69
2022/04/06 07:28:27;;;;;;;4.70;2.92;;;;;;;13.00;61.10;98264.97;5154069;28;20213;-69
2022/04/06 07:31:17;;;;;;;3.95;2.65;;;;;;;13.40;60.10;98260.38;5147432;28;20185;-70
2022/04/06 07:34:09;;;;;;;6.00;3.17;;;;;;;13.53;58.33;98262.41;5132031;28;20211;-69
2022/04/06 07:36:59;;;;;;;3.97;2.78;;;;;;;13.24;61.37;98268.44;5162226;28;20053;-70
2022/04/06 07:39:52;;;;;;;5.28;3.13;;;;;;;13.44;59.98;98268.81;5163277;28;20433;-71
2022/04/06 07:42:43;;;;;;;5.57;3.13;;;;;;;13.11;61.77;98259.25;5161949;28;20050;-72
2022/04/06 07:45:33;;;;;;;4.57;2.88;;;;;;;12.56;61.94;98256.78;5146995;28;20050;-71
2022/04/06 07:48:26;;;;;;;6.20;3.20;;;;;;;13.50;59.51;98266.25;5162123;28;20054;-72
2022/04/06 07:51:17;;;;;;;6.97;3.65;;;;;;;13.12;60.73;98260.91;5161386;28;20080;-72
2022/04/06 07:54:07;;;;;;;6.47;2.88;;;;;;;13.04;61.15;98254.78;5146236;28;20076;-72
2022/04/06 07:56:57;;;;;;;7.22;3.08;;;;;;;13.33;60.89;98259.44;5139478;28;20417;-72
2022/04/06 07:59:47;;;;;;;6.32;2.92;;;;;;;13.38;60.08;98262.41;5131605;28;20106;-72
2022/04/06 08:02:37;;;;;;;5.35;2.78;;;;;;;13.04;61.47;98266.25;5160378;28;20122;-71
2022/04/06 08:05:27;;;;;;;5.03;2.30;;;;;;;13.00;61.23;98264.97;5161449;28;20051;-71
2022/04/06 08:08:17;;;;;;;3.42;2.15;;;;;;;13.27;60.85;98255.63;5161669;28;20081;-71
2022/04/06 08:11:08;;;;;;;3.38;1.83;;;;;;;13.05;61.24;98275.09;5132109;28;20058;-72
2022/04/06 08:13:58;;;;;;;2.83;1.90;;;;;;;12.60;62.44;98253.56;5161013;28;20421;-71
2022/04/06 08:16:48;;;;;;;5.78;2.40;;;;;;;13.17;60.39;98266.50;5145521;28;20050;-71
2022/04/06 08:19:39;;;;;;;3.90;1.95;;;;;;;13.12;61.69;98263.56;5133272;28;20053;-71
2022/04/06 08:22:29;;;;;;;3.40;2.17;;;;;;;13.75;60.15;98261.53;5160248;28;20057;-71
2022/04/06 08:25:19;;;;;;;2.92;2.20;;;;;;;13.47;60.13;98261.28;5145085;28;20420;-71
2022/04/06 08:28:27;;;;;;;2.90;2.05;;;;;;;14.23;59.53;98263.84;5160157;28;20060;-71
2022/04/06 08:31:17;;;;;;;2.38;1.90;;;;;;;14.43;57.58;98251.59;5146037;28;20054;-71
2022/04/06 08:34:08;;;;;;;3.58;2.00;;;;;;;14.65;57.60;98249.00;5146085;28;20525;-71
2022/04/06 08:37:04;;;;;;;2.97;2.10;;;;;;;14.18;57.27;98250.25;5158891;28;20231;-71
2022/04/06 08:39:54;;;;;;;3.53;2.15;;;;;;;14.64;56.69;98247.38;5161176;28;20092;-71
2022/04/06 08:42:59;;;;;;;7.13;2.20;;;;;;;14.66;56.02;98245.31;5152148;28;20046;-71
2022/04/06 08:45:50;;;;;;;3.53;2.10;;;;;;;14.61;57.99;98243.22;5148442;28;20047;-72
2022/04/06 08:48:43;;;;;;;5.60;1.83;;;;;;;15.35;55.28;98237.59;5150882;28;20054;-71
2022/04/06 08:51:34;;;;;;;3.78;1.67;;;;;;;15.10;54.43;98241.66;5164156;28;20058;-71
2022/04/06 08:54:25;;;;;;;2.75;2.17;;;;;;;15.07;51.64;98242.91;5160890;28;20140;-71
2022/04/06 08:57:17;;;;;;;3.28;1.30;;;;;;;15.41;51.50;98231.47;5161424;28;20053;-71
2022/04/06 09:00:10;;;;;;;2.40;1.52;;;;;;;15.77;50.00;98230.53;5164706;28;20053;-71
2022/04/06 09:03:00;;;;;;;2.17;1.42;;;;;;;14.92;50.65;98240.28;5164829;28;20062;-71
2022/04/06 09:06:01;;;;;;;2.17;1.13;;;;;;;15.36;49.67;98241.06;5163214;28;21105;-71
2022/04/06 09:08:51;;;;;;;1.92;1.23;;;;;;;15.32;48.78;98243.31;5164414;28;20058;-71
2022/04/06 09:11:42;;;;;;;3.40;1.77;;;;;;;14.08;52.49;98248.69;5163963;28;20062;-71
2022/04/06 09:14:33;;;;;;;1.42;1.02;;;;;;;14.24;52.18;98239.69;5163232;28;20042;-71
2022/04/06 09:17:24;;;;;;;2.05;1.10;;;;;;;13.58;53.95;98258.22;5163530;28;20050;-71
2022/04/06 09:20:15;;;;;;;3.05;1.00;;;;;;;13.50;54.28;98250.28;5163434;28;20054;-72
2022/04/06 09:23:10;;;;;;;2.10;1.20;;;;;;;14.30;52.09;98252.28;5150332;28;20097;-71
2022/04/06 09:26:04;;;;;;;2.95;1.30;;;;;;;16.32;49.16;98241.31;5163042;28;20054;-71
2022/04/06 09:29:03;;;;;;;4.88;1.25;;;;;;;17.59;46.80;98236.06;5149586;28;20085;-72
2022/04/06 09:31:53;;;;;;;2.72;1.05;;;;;;;17.95;45.52;98228.63;5162642;28;20116;-71
2022/04/06 09:34:46;;;;;;;2.45;1.17;;;;;;;16.53;48.11;98227.03;5162335;28;20054;-71
2022/04/06 09:37:36;;;;;;;1.67;1.08;;;;;;;17.39;47.17;98221.84;5162957;28;20049;-71
2022/04/06 09:40:29;;;;;;;4.03;1.05;;;;;;;16.24;49.40;98228.13;5163778;28;20078;-71
2022/04/06 09:43:30;;;;;;;3.72;0.95;;;;;;;16.84;49.51;98216.63;5163702;28;20562;-71
2022/04/06 09:49:34;;;;;;;2.25;0.88;;;;;;;16.95;48.18;98199.13;5163189;28;20053;-71
2022/04/06 09:52:28;;;;;;;0.77;0.50;;;;;;;17.29;47.54;98194.63;5161014;28;20442;-71
2022/04/06 09:55:21;;;;;;;0.75;0.70;;;;;;;16.16;48.65;98189.00;5162224;28;20105;-71
2022/04/06 09:58:13;;;;;;;0.60;0.60;;;;;;;16.14;47.62;98188.38;5162067;28;20509;-71
2022/04/06 10:01:04;;;;;;;0.57;0.57;;;;;;;15.88;48.28;98187.22;5158944;28;20065;-71
2022/04/06 10:03:56;;;;;;;2.05;0.50;;;;;;;15.19;48.91;98184.44;5162563;28;20515;-71
2022/04/06 10:06:48;;;;;;;1.20;0.50;;;;;;;15.22;49.12;98190.22;5147765;28;20567;-69
2022/04/06 10:09:40;;;;;;;1.60;0.88;;;;;;;15.98;47.96;98176.97;5163808;28;20531;-70
2022/04/06 10:12:31;;;;;;;0.88;0.55;;;;;;;15.81;47.92;98183.69;5162610;28;20061;-71
2022/04/06 10:15:42;;;;;;;1.70;0.50;;;;;;;15.84;50.35;98180.63;5162728;28;20050;-71
2022/04/06 10:18:34;;;;;;;1.25;0.60;;;;;;;15.91;49.77;98180.66;5162991;28;20046;-71
2022/04/06 10:21:31;;;;;;;0.85;0.50;;;;;;;16.01;48.32;98170.41;5147200;28;20508;-70
2022/04/06 10:24:32;;;;;;;1.40;0.40;;;;;;;16.98;47.69;98166.59;5164822;28;20072;-70
2022/04/06 10:27:35;;;;;;;0.57;0.50;;;;;;;16.16;47.90;98164.94;5146178;28;20046;-69
2022/04/06 10:30:28;;;;;;;0.63;0.50;;;;;;;16.66;49.32;98157.47;5162043;28;20441;-68
2022/04/06 10:33:20;;;;;;;1.13;0.40;;;;;;;17.05;46.11;98155.88;5162271;28;20060;-71
2022/04/06 10:36:32;;;;;;;0.50;0.50;;;;;;;16.33;47.14;98149.38;5161725;28;20113;-71
2022/04/06 10:39:23;;;;;;;2.15;0.55;;;;;;;15.74;47.54;98148.06;5152581;28;20136;-73
2022/04/06 10:42:36;;;;;;;2.20;0.68;;;;;;;15.52;48.53;98128.59;5135001;28;20042;-71
2022/04/06 10:45:29;;;;;;;2.28;0.63;;;;;;;16.06;48.17;98143.06;5155048;28;20428;-70
2022/04/06 10:48:19;;;;;;;5.82;0.57;;;;;;;16.33;46.89;98138.66;5161815;28;20064;-71
2022/04/06 10:51:33;;;;;;;1.05;0.70;;;;;;;16.08;47.97;98133.00;5162493;28;20057;-71
2022/04/06 10:54:27;;;;;;;;;;;;;;;17.35;47.14;98127.66;5162914;28;20152;-71
2022/04/06 10:57:19;;;;;;;11.10;5.43;;;;;;;16.91;46.61;98121.06;5161891;28;19929;-70
2022/04/06 11:00:16;;;;;;;10.68;5.03;;;;;;;16.66;47.38;98114.66;5162085;28;20174;-71
2022/04/06 11:03:15;;;;;;;13.23;6.15;;;;;;;16.08;48.84;98111.63;5161914;28;20104;-69
2022/04/06 11:06:06;;;;;;;3.47;1.60;;;;;;;16.89;47.28;98109.75;5160978;28;20062;-69
2022/04/06 11:12:11;;;;;;;2.97;0.80;;;;;;;17.51;45.67;98106.78;5133070;28;20134;-68
2022/04/06 11:15:01;;;;;;;0.82;0.63;;;;;;;17.26;46.03;98095.91;5146529;28;20538;-68
2022/04/06 11:17:53;;;;;;;0.77;0.50;;;;;;;16.89;46.06;98098.22;5162539;28;20519;-69
2022/04/06 11:20:44;;;;;;;0.90;0.60;;;;;;;17.00;47.09;98086.06;5161095;28;20139;-70
2022/04/06 11:23:35;;;;;;;0.57;0.50;;;;;;;16.64;48.04;98088.06;5134448;28;20105;-71
2022/04/06 11:26:26;;;;;;;1.00;0.60;;;;;;;17.20;47.75;98083.34;5161649;28;20085;-69
2022/04/06 11:29:16;;;;;;;4.25;0.70;;;;;;;18.05;46.54;98081.47;5161409;28;20054;-71
2022/04/06 11:32:07;;;;;;;3.05;0.60;;;;;;;18.36;45.32;98061.06;5145964;28;20108;-70
2022/04/06 11:35:03;;;;;;;0.60;0.52;;;;;;;18.49;46.25;98077.91;5147359;28;20487;-69
2022/04/06 11:37:53;;;;;;;2.05;0.85;;;;;;;17.81;43.78;98062.41;5160946;28;20100;-70
2022/04/06 11:40:43;;;;;;;1.10;1.00;;;;;;;19.31;42.60;98060.94;5146533;28;20537;-70
2022/04/06 11:43:40;;;;;;;0.90;0.70;;;;;;;17.77;44.27;98058.47;5132021;28;20140;-70
2022/04/06 11:46:44;;;;;;;1.58;0.50;;;;;;;16.89;44.94;98031.28;5144371;28;20056;-70
2022/04/06 11:49:36;;;;;;;0.63;0.40;;;;;;;17.04;45.42;98064.00;5151872;28;20080;-69
2022/04/06 11:52:29;;;;;;;0.73;0.60;;;;;;;17.37;45.99;98060.44;5143261;28;20052;-69
2022/04/06 11:55:19;;;;;;;3.17;0.70;;;;;;;17.24;46.03;98052.44;5137741;28;20058;-70
2022/04/06 11:58:10;;;;;;;1.48;0.40;;;;;;;18.59;43.83;98050.56;5160737;28;20209;-68
2022/04/06 12:01:03;;;;;;;1.27;0.70;;;;;;;18.74;43.93;98043.06;5161606;28;20057;-72
2022/04/06 12:03:53;;;;;;;2.20;0.88;;;;;;;18.39;42.60;98028.44;5160545;28;20069;-73
2022/04/06 12:06:43;;;;;;;9.52;0.70;;;;;;;17.90;46.44;98024.59;5147332;28;20105;-72
2022/04/06 12:09:34;;;;;;;2.75;1.08;;;;;;;16.79;45.08;98037.06;5160484;28;20142;-74
2022/04/06 12:12:25;;;;;;;0.90;0.75;;;;;;;16.28;46.58;98020.72;5159163;28;20532;-73
2022/04/06 12:15:15;;;;;;;1.38;0.80;;;;;;;16.76;47.41;98032.09;5160589;28;20054;-72
2022/04/06 12:18:06;;;;;;;3.40;0.63;;;;;;;16.93;45.64;98004.91;5160125;28;20422;-73
2022/04/06 12:20:57;;;;;;;2.85;0.65;;;;;;;17.51;45.19;98008.44;5149289;28;20046;-74
2022/04/06 12:23:48;;;;;;;3.17;0.50;;;;;;;17.28;46.06;98016.97;5150949;28;20141;-74
2022/04/06 12:26:45;;;;;;;1.10;0.57;;;;;;;17.88;47.09;98006.06;5165222;28;20509;-73
2022/04/06 12:29:36;;;;;;;1.30;0.60;;;;;;;17.78;45.69;98011.88;5147370;28;20084;-74
2022/04/06 12:32:43;;;;;;;1.48;0.40;;;;;;;16.76;43.86;98008.03;5149437;28;20058;-73
2022/04/06 12:35:33;;;;;;;0.93;0.35;;;;;;;17.27;44.34;97993.88;5166510;28;20057;-74
2022/04/06 12:38:26;;;;;;;1.00;0.70;;;;;;;17.16;44.84;97996.41;5201698;23;20081;-88
2022/04/06 12:41:16;;;;;;;3.17;0.60;;;;;;;17.38;44.11;97962.94;5189208;28;20034;-88
2022/04/06 12:44:15;;;;;;;;;;;;;;;17.55;44.15;97990.09;5185709;28;20622;-87
2022/04/06 12:47:19;;;;;;;0.40;0.30;;;;;;;17.60;42.33;97977.69;5178572;28;19931;-87
2022/04/06 12:50:19;;;;;;;3.67;0.60;;;;;;;16.05;46.27;97935.53;5179370;28;20487;-87
2022/04/06 12:53:12;;;;;;;2.67;0.73;;;;;;;16.15;48.33;97943.97;5173223;28;20250;-87
2022/04/06 12:56:10;;;;;;;0.90;0.70;;;;;;;16.72;47.71;97942.53;5173211;28;20128;-87
2022/04/06 12:59:08;;;;;;;1.88;0.95;;;;;;;16.48;47.66;97964.56;5155700;28;20056;-88
2022/04/06 13:01:58;;;;;;;4.07;0.80;;;;;;;16.80;47.60;97931.59;5188302;28;20147;-88
2022/04/06 13:04:50;;;;;;;0.85;0.68;;;;;;;16.56;46.52;97937.59;5176424;28;20061;-88
2022/04/06 13:07:43;;;;;;;0.95;0.75;;;;;;;17.44;46.24;97972.00;5158568;28;20053;-87
2022/04/06 13:10:34;;;;;;;0.80;0.60;;;;;;;17.51;46.31;97940.63;5161106;28;20455;-88
2022/04/06 13:13:24;;;;;;;1.33;0.52;;;;;;;17.02;44.78;97958.09;5183698;28;20054;-86
2022/04/06 13:16:15;;;;;;;0.70;0.65;;;;;;;16.02;47.13;97965.34;5172939;28;20194;-87
2022/04/06 13:19:07;;;;;;;1.80;0.45;;;;;;;16.57;46.94;97968.69;5177556;28;20050;-87
2022/04/06 13:21:57;;;;;;;3.13;0.52;;;;;;;16.31;46.27;97962.28;5183667;28;20115;-88
2022/04/06 13:24:48;;;;;;;0.90;0.50;;;;;;;16.83;47.88;97938.41;5196474;28;20061;-87
2022/04/06 13:27:41;;;;;;;3.13;0.40;;;;;;;17.36;45.21;97949.75;5205674;28;20080;-88
2022/04/06 13:30:32;;;;;;;;;;;;;;;16.38;45.32;97947.06;5199317;28;20105;-87
2022/04/06 13:33:25;;;;;;;4.75;0.38;;;;;;;17.20;45.32;97926.13;5195295;28;20135;-87
2022/04/06 13:36:16;;;;;;;2.05;0.38;;;;;;;15.91;45.43;97902.63;5197458;28;20050;-88
2022/04/06 13:39:07;;;;;;;0.45;0.30;;;;;;;16.48;45.50;97895.00;5187549;28;20491;-87